Time;durP1;ratioP1;P1;durP2;ratioP2;P2;SDS_P1;SDS_P2;PMS_P1;PMS_P2;Temp;Humidity;BMP_temperature;BMP_pressure;BME280_temperature;BME280_humidity;BME280_pressure;Samples;Min_cycle;Max_cycle;Signal;HPM_P1;HPM_P2
2022/07/19 00:00:09;;;;;;;5.90;4.32;;;;;;;16.30;82.06;101839.03;2016117;29;22843;-70
2022/07/19 00:01:11;;;;;;;5.95;4.53;;;;;;;16.29;81.95;101831.84;2016448;29;20487;-71
2022/07/19 00:02:13;;;;;;;6.88;4.63;;;;;;;16.27;82.05;101838.25;2016505;29;20045;-71
2022/07/19 00:03:17;;;;;;;7.43;4.65;;;;;;;16.28;82.43;101832.78;2016591;29;20210;-71
2022/07/19 00:04:19;;;;;;;6.47;4.60;;;;;;;16.28;82.45;101832.78;2016352;29;20244;-71
2022/07/19 00:05:22;;;;;;;7.05;4.55;;;;;;;16.29;82.41;101831.84;2015992;29;28789;-70
2022/07/19 00:06:24;;;;;;;5.88;4.28;;;;;;;16.28;82.75;101831.91;2016302;29;26098;-70
2022/07/19 00:07:30;;;;;;;7.70;4.55;;;;;;;16.27;82.75;101832.84;2016105;29;20045;-70
2022/07/19 00:08:34;;;;;;;6.32;4.93;;;;;;;16.26;82.57;101831.06;2016688;29;20418;-70
2022/07/19 00:09:36;;;;;;;7.65;4.68;;;;;;;16.24;82.97;101836.53;2015922;29;20138;-70
2022/07/19 00:13:39;;;;;;;6.50;3.90;;;;;;;16.17;82.19;101832.25;2007810;29;44665;-70
2022/07/19 00:14:41;;;;;;;9.63;4.63;;;;;;;16.17;82.77;101835.84;2015889;29;20049;-70
2022/07/19 00:15:43;;;;;;;4.75;3.83;;;;;;;16.18;82.91;101836.72;2023797;29;24529;-70
2022/07/19 00:16:50;;;;;;;6.00;4.45;;;;;;;16.17;82.88;101841.25;2016828;29;20176;-70
2022/07/19 00:17:52;;;;;;;6.22;4.70;;;;;;;16.16;82.60;101835.88;2016521;29;20046;-70
2022/07/19 00:18:57;;;;;;;5.32;4.25;;;;;;;16.16;82.92;101838.59;2016510;29;25662;-70
2022/07/19 00:19:59;;;;;;;7.88;4.47;;;;;;;16.15;82.96;101831.41;2016091;29;20053;-72
2022/07/19 00:21:01;;;;;;;6.47;4.30;;;;;;;16.15;83.17;101832.31;2016263;29;32269;-70
2022/07/19 00:22:03;;;;;;;8.77;4.85;;;;;;;16.14;82.62;101832.34;2016201;29;28455;-70
2022/07/19 00:23:04;;;;;;;6.22;4.65;;;;;;;16.12;82.97;101836.91;2016591;29;21642;-70
2022/07/19 00:24:08;;;;;;;7.63;5.40;;;;;;;16.11;82.86;101832.44;2015866;29;31763;-70
2022/07/19 00:25:15;;;;;;;6.38;5.13;;;;;;;16.14;83.66;101835.91;2016990;29;20709;-70
2022/07/19 00:28:25;;;;;;;6.03;4.70;;;;;;;16.10;83.84;101836.09;2023539;29;20937;-71
2022/07/19 00:29:32;;;;;;;5.50;4.13;;;;;;;16.09;84.02;101837.00;2023685;29;20044;-71
2022/07/19 00:30:37;;;;;;;7.18;5.22;;;;;;;16.03;84.15;101828.16;2016397;29;20264;-71
2022/07/19 00:32:42;;;;;;;6.20;5.10;;;;;;;15.99;84.19;101829.19;2014468;29;46916;-71
2022/07/19 00:33:46;;;;;;;7.50;5.13;;;;;;;15.96;84.11;101828.41;2016270;29;22823;-71
2022/07/19 00:34:48;;;;;;;6.32;5.10;;;;;;;15.92;84.15;101827.63;2016311;29;21753;-71
2022/07/19 00:35:50;;;;;;;7.35;5.10;;;;;;;15.90;84.32;101828.59;2016809;29;25243;-71
2022/07/19 00:36:52;;;;;;;7.35;4.97;;;;;;;15.88;84.14;101827.75;2015752;29;20057;-71
2022/07/19 00:37:54;;;;;;;7.55;5.60;;;;;;;15.84;84.73;101827.88;2016443;29;32838;-71
2022/07/19 00:38:56;;;;;;;6.82;5.05;;;;;;;15.80;84.51;101828.00;2016342;29;20486;-71
2022/07/19 00:39:57;;;;;;;7.28;4.47;;;;;;;15.79;85.23;101824.41;2016209;29;21370;-71
2022/07/19 00:41:02;;;;;;;7.40;5.15;;;;;;;15.76;85.07;101832.59;2016619;29;21915;-71
2022/07/19 00:42:03;;;;;;;5.93;4.50;;;;;;;15.76;85.26;101837.13;2015908;29;26199;-71
2022/07/19 00:43:05;;;;;;;5.03;4.53;;;;;;;15.75;85.03;101835.34;2014757;29;22444;-71
2022/07/19 00:45:08;;;;;;;6.63;5.15;;;;;;;15.71;85.49;101830.94;2014844;29;45748;-71
2022/07/19 00:46:15;;;;;;;7.18;5.43;;;;;;;15.68;85.54;101836.44;2015930;29;20085;-71
2022/07/19 00:47:17;;;;;;;5.65;4.97;;;;;;;15.66;85.42;101823.84;2015888;29;32288;-71
2022/07/19 00:48:19;;;;;;;7.57;5.15;;;;;;;15.65;85.53;101826.63;2016251;29;20934;-71
2022/07/19 00:49:21;;;;;;;7.05;5.22;;;;;;;15.63;85.42;101828.44;2014882;29;37604;-71
2022/07/19 00:50:23;;;;;;;7.50;5.38;;;;;;;15.62;85.77;101816.78;2016161;29;21843;-71
2022/07/19 00:51:25;;;;;;;6.28;5.55;;;;;;;15.62;85.66;101822.19;2015520;29;22809;-71
2022/07/19 00:52:31;;;;;;;7.07;4.95;;;;;;;15.62;85.91;101822.19;2015622;29;31092;-70
2022/07/19 00:53:35;;;;;;;8.35;5.93;;;;;;;15.61;86.04;101825.81;2015759;29;20049;-71
2022/07/19 00:54:39;;;;;;;7.82;4.60;;;;;;;15.60;85.94;101824.03;2008975;29;23711;-71
2022/07/19 00:55:43;;;;;;;6.13;4.95;;;;;;;15.60;85.96;101828.56;2016768;29;20049;-71
2022/07/19 00:56:52;;;;;;;6.60;4.45;;;;;;;15.58;85.85;101823.22;2022995;29;20223;-71
2022/07/19 00:57:57;;;;;;;5.97;4.72;;;;;;;15.55;86.32;101825.13;2015003;29;21610;-71
2022/07/19 00:59:05;;;;;;;7.07;4.57;;;;;;;15.53;86.56;101821.56;2009029;29;33170;-71
2022/07/19 01:01:09;;;;;;;6.22;4.60;;;;;;;15.51;86.24;101821.63;2015074;29;43701;-70
2022/07/19 01:02:14;;;;;;;6.68;4.60;;;;;;;15.49;86.07;101826.19;2015354;29;27696;-70
2022/07/19 01:03:16;;;;;;;7.43;4.57;;;;;;;15.50;86.44;101827.06;2021410;29;30284;-70
2022/07/19 01:04:19;;;;;;;9.60;4.80;;;;;;;15.46;86.49;101821.75;2015508;29;23816;-70
2022/07/19 01:05:21;;;;;;;6.03;4.13;;;;;;;15.47;86.84;101825.34;2015616;29;27113;-70
2022/07/19 01:06:23;;;;;;;6.32;4.93;;;;;;;15.47;86.71;101830.75;2016043;29;26230;-70
2022/07/19 01:07:24;;;;;;;5.55;4.50;;;;;;;15.48;87.01;101828.91;2016313;29;26343;-70
2022/07/19 01:09:27;;;;;;;5.38;4.20;;;;;;;15.48;87.36;101823.53;2015291;29;44657;-71
2022/07/19 01:10:28;;;;;;;5.03;4.40;;;;;;;15.46;87.02;101829.84;2015564;29;27188;-71
2022/07/19 01:11:33;;;;;;;7.55;5.43;;;;;;;15.41;87.08;101820.13;2022961;29;27736;-71
2022/07/19 01:12:36;;;;;;;6.63;4.88;;;;;;;15.39;87.62;101822.84;2016037;29;27327;-71
2022/07/19 01:13:43;;;;;;;6.97;4.68;;;;;;;15.35;86.84;101829.28;2015622;29;26739;-71
2022/07/19 01:15:46;;;;;;;5.47;4.88;;;;;;;15.32;87.61;101823.06;2014060;29;45140;-71
2022/07/19 01:16:48;;;;;;;9.52;5.25;;;;;;;15.32;87.57;101823.06;2015866;29;20129;-71
2022/07/19 01:18:52;;;;;;;6.43;4.30;;;;;;;15.30;87.59;101822.25;2022668;29;45524;-71
2022/07/19 01:19:54;;;;;;;6.15;4.55;;;;;;;15.30;87.78;101822.25;2015105;29;33082;-71
2022/07/19 01:20:57;;;;;;;7.65;4.90;;;;;;;15.28;87.75;101825.84;2015130;29;33790;-71
2022/07/19 01:21:59;;;;;;;5.55;4.90;;;;;;;15.25;88.21;101817.88;2016565;29;20093;-70
2022/07/19 01:23:02;;;;;;;6.50;4.63;;;;;;;15.25;88.08;101828.66;2014488;29;35143;-70
2022/07/19 01:24:04;;;;;;;6.13;4.68;;;;;;;15.25;88.17;101820.56;2016230;29;22335;-69
2022/07/19 01:25:07;;;;;;;7.32;4.70;;;;;;;15.25;88.05;101825.97;2021736;29;34075;-70
2022/07/19 01:28:20;;;;;;;7.65;4.70;;;;;;;15.23;87.81;101825.09;2015371;29;20180;-70
2022/07/19 01:29:22;;;;;;;7.05;4.53;;;;;;;15.25;87.98;101822.34;2015141;29;20126;-69
2022/07/19 01:30:26;;;;;;;11.43;4.78;;;;;;;15.25;88.08;101820.56;2015470;29;30619;-70
2022/07/19 01:31:28;;;;;;;6.93;4.47;;;;;;;15.25;87.89;101823.28;2016373;29;23284;-70
2022/07/19 01:34:32;;;;;;;5.63;4.80;;;;;;;15.22;87.79;101828.75;2007671;29;33514;-70
2022/07/19 01:35:34;;;;;;;6.60;4.50;;;;;;;15.21;87.79;101824.25;2014512;29;30048;-70
2022/07/19 01:36:38;;;;;;;5.82;4.50;;;;;;;15.21;87.75;101831.47;2017581;29;20049;-72
2022/07/19 01:37:40;;;;;;;8.20;5.28;;;;;;;15.20;88.21;101829.69;2017839;29;20050;-70
2022/07/19 01:38:45;;;;;;;7.00;5.22;;;;;;;15.19;88.55;101820.72;2017965;29;20085;-70
2022/07/19 01:39:46;;;;;;;6.93;5.57;;;;;;;15.20;88.32;101832.38;2024020;29;20108;-71
2022/07/19 01:40:48;;;;;;;5.95;5.00;;;;;;;15.19;88.36;101827.94;2024989;29;20910;-71
2022/07/19 01:41:53;;;;;;;5.10;4.38;;;;;;;15.18;88.41;101824.38;2016874;29;20157;-71
2022/07/19 01:42:55;;;;;;;6.05;4.47;;;;;;;15.18;88.49;101827.06;2017927;29;20042;-70
2022/07/19 01:43:58;;;;;;;5.72;4.80;;;;;;;15.18;88.43;101826.16;2016930;29;27222;-70
2022/07/19 01:45:00;;;;;;;5.32;4.82;;;;;;;15.18;88.35;101834.25;2017624;29;21397;-70
2022/07/19 01:46:03;;;;;;;6.05;4.30;;;;;;;15.17;88.65;101827.97;2017125;29;20368;-70
2022/07/19 01:47:07;;;;;;;5.82;4.47;;;;;;;15.17;88.75;101830.69;2017924;29;20176;-71
2022/07/19 01:49:09;;;;;;;5.13;4.63;;;;;;;15.16;89.04;101822.63;2014678;29;46484;-71
2022/07/19 01:50:15;;;;;;;6.25;4.50;;;;;;;15.17;89.18;101829.81;2017006;29;20186;-71
2022/07/19 01:51:16;;;;;;;6.80;4.43;;;;;;;15.16;89.02;101831.59;2016946;29;29229;-70
2022/07/19 01:52:18;;;;;;;6.95;4.72;;;;;;;15.15;89.01;101834.34;2017865;29;20041;-71
2022/07/19 01:53:20;;;;;;;5.63;4.43;;;;;;;15.13;89.29;101829.00;2017491;29;21227;-71
2022/07/19 01:54:22;;;;;;;6.32;4.47;;;;;;;15.13;89.06;101833.50;2016915;29;20242;-71
2022/07/19 01:56:27;;;;;;;8.38;5.45;;;;;;;15.06;88.87;101830.09;2015212;29;39284;-71
2022/07/19 01:57:29;;;;;;;6.22;4.95;;;;;;;15.04;89.14;101827.44;2017357;29;20819;-71
2022/07/19 01:58:34;;;;;;;4.90;4.40;;;;;;;15.04;89.26;101829.25;2016427;29;23325;-71
2022/07/19 01:59:36;;;;;;;5.90;4.80;;;;;;;15.01;89.12;101834.72;2016667;29;25587;-71
2022/07/19 02:00:38;;;;;;;6.05;4.95;;;;;;;15.00;89.70;101824.84;2016952;29;20119;-71
2022/07/19 02:01:40;;;;;;;6.85;5.28;;;;;;;14.99;89.31;101826.69;2017935;29;20087;-71
2022/07/19 02:02:44;;;;;;;6.00;4.85;;;;;;;14.98;89.23;101824.88;2017598;29;20041;-71
2022/07/19 02:03:46;;;;;;;5.75;4.47;;;;;;;14.97;89.54;101823.13;2017031;29;29007;-71
2022/07/19 02:04:48;;;;;;;6.75;4.45;;;;;;;14.97;89.38;101830.34;2024225;29;21013;-71
2022/07/19 02:05:50;;;;;;;6.18;5.10;;;;;;;14.92;89.24;101822.38;2024144;29;30574;-71
2022/07/19 02:06:52;;;;;;;5.75;4.78;;;;;;;14.91;89.63;101823.28;2017007;29;33212;-71
2022/07/19 02:07:54;;;;;;;4.90;4.40;;;;;;;14.88;89.63;101824.28;2018027;29;20045;-71
2022/07/19 02:08:55;;;;;;;8.00;4.50;;;;;;;14.85;89.83;101824.34;2023697;29;20085;-71
2022/07/19 02:09:58;;;;;;;6.30;4.88;;;;;;;14.85;89.67;101828.84;2024682;29;20044;-71
2022/07/19 02:11:34;;;;;;;6.38;4.90;;;;;;;14.83;89.94;101823.50;2016550;29;27925;-71
2022/07/19 02:13:22;;;;;;;6.97;4.68;;;;;;;14.82;90.67;101832.53;2015236;29;45709;-71
2022/07/19 02:14:24;;;;;;;6.82;4.60;;;;;;;14.82;90.52;101829.84;2017126;29;20722;-71
2022/07/19 02:15:26;;;;;;;8.32;5.32;;;;;;;14.82;90.78;101834.31;2017443;29;20046;-71
2022/07/19 02:16:31;;;;;;;6.80;5.18;;;;;;;14.82;90.53;101829.84;2017065;29;20168;-71
2022/07/19 02:17:33;;;;;;;6.70;5.20;;;;;;;14.81;90.48;101828.06;2016463;29;20129;-71
2022/07/19 02:18:37;;;;;;;5.43;4.53;;;;;;;14.80;90.39;101826.28;2017490;29;20089;-71
2022/07/19 02:19:39;;;;;;;7.00;5.22;;;;;;;14.77;90.13;101834.47;2017431;29;20046;-71
2022/07/19 02:20:41;;;;;;;6.38;5.18;;;;;;;14.76;90.16;101819.19;2023932;29;29668;-71
2022/07/19 02:21:43;;;;;;;6.00;4.88;;;;;;;14.74;90.25;101829.13;2024223;29;22976;-70
2022/07/19 02:22:45;;;;;;;5.50;4.00;;;;;;;14.73;90.69;101824.66;2016220;29;22378;-71
2022/07/19 02:23:48;;;;;;;6.05;5.25;;;;;;;14.72;91.02;101824.72;2016828;29;21019;-70
2022/07/19 02:24:50;;;;;;;5.03;4.53;;;;;;;14.74;91.25;101823.75;2017244;29;23648;-71
2022/07/19 02:26:52;;;;;;;6.95;5.15;;;;;;;14.74;91.19;101825.56;2015172;29;44896;-71
2022/07/19 02:27:53;;;;;;;6.88;4.82;;;;;;;14.75;91.18;101821.94;2016461;29;23359;-70
2022/07/19 02:28:55;;;;;;;5.88;4.63;;;;;;;14.73;91.40;101823.78;2016385;29;28996;-71
2022/07/19 02:29:57;;;;;;;6.45;4.95;;;;;;;14.73;91.16;101821.97;2016853;29;20093;-71
2022/07/19 02:30:59;;;;;;;5.82;4.90;;;;;;;14.73;91.29;101819.25;2017558;29;24221;-71
2022/07/19 02:32:03;;;;;;;6.85;4.80;;;;;;;14.71;91.04;101815.72;2017291;29;20758;-71
2022/07/19 02:33:05;;;;;;;6.35;5.20;;;;;;;14.70;91.08;101822.06;2016989;29;20057;-71
2022/07/19 02:36:07;;;;;;;6.68;4.47;;;;;;;14.68;90.78;101815.84;2007721;29;41590;-71
2022/07/19 02:37:09;;;;;;;6.22;4.82;;;;;;;14.66;90.92;101820.34;2016351;29;32970;-71
2022/07/19 02:38:11;;;;;;;5.40;4.72;;;;;;;14.66;90.81;101828.44;2016928;29;28365;-71
2022/07/19 02:39:13;;;;;;;6.82;5.10;;;;;;;14.65;90.79;101818.59;2016724;29;20942;-72
2022/07/19 02:40:14;;;;;;;5.40;4.38;;;;;;;14.64;90.97;101830.28;2017288;29;20828;-71
2022/07/19 02:41:17;;;;;;;6.20;5.00;;;;;;;14.64;91.05;101824.91;2016849;29;27664;-72
2022/07/19 02:42:18;;;;;;;7.38;4.60;;;;;;;14.63;91.12;101823.16;2016958;29;22765;-72
2022/07/19 02:45:31;;;;;;;6.95;4.72;;;;;;;14.60;90.98;101821.41;2007366;29;46119;-70
2022/07/19 02:46:34;;;;;;;5.63;5.07;;;;;;;14.63;91.06;101823.16;2016445;29;20041;-71
2022/07/19 02:47:38;;;;;;;6.82;5.22;;;;;;;14.62;91.01;101826.75;2016995;29;24638;-71
2022/07/19 02:48:40;;;;;;;6.35;5.18;;;;;;;14.61;90.85;101814.22;2016773;29;20141;-71
2022/07/19 02:49:41;;;;;;;6.97;4.72;;;;;;;14.60;90.89;101818.69;2017133;29;20041;-70
2022/07/19 02:50:46;;;;;;;7.07;4.95;;;;;;;14.59;90.48;101826.81;2024040;29;20109;-70
2022/07/19 02:51:48;;;;;;;8.05;5.80;;;;;;;14.57;90.87;101834.94;2023140;29;30723;-71
2022/07/19 02:52:50;;;;;;;8.68;5.72;;;;;;;14.55;90.95;101833.19;2016422;29;20167;-73
2022/07/19 02:53:51;;;;;;;8.18;4.95;;;;;;;14.52;91.03;101831.47;2016928;29;31783;-73
2022/07/19 02:54:53;;;;;;;5.60;4.90;;;;;;;14.51;91.10;101830.56;2017328;29;20734;-71
2022/07/19 02:55:55;;;;;;;6.43;5.00;;;;;;;14.51;91.31;101830.56;2017327;29;25245;-72
2022/07/19 02:56:58;;;;;;;5.80;5.20;;;;;;;14.50;91.86;101828.81;2016896;29;25652;-73
2022/07/19 02:58:00;;;;;;;8.00;5.40;;;;;;;14.49;91.75;101829.72;2017523;29;20072;-73
2022/07/19 02:59:04;;;;;;;7.35;5.22;;;;;;;14.48;91.82;101819.88;2016231;29;20835;-73
2022/07/19 03:01:06;;;;;;;5.82;5.22;;;;;;;14.47;91.76;101823.50;2007967;29;39830;-73
2022/07/19 03:02:08;;;;;;;8.88;5.57;;;;;;;14.47;91.64;101828.88;2016743;29;20045;-72
2022/07/19 03:04:30;;;;;;;6.88;5.47;;;;;;;14.50;92.87;101831.50;2016170;29;32456;-71
2022/07/19 03:05:32;;;;;;;7.80;5.68;;;;;;;14.52;92.33;101826.09;2016810;29;27210;-73
2022/07/19 03:06:34;;;;;;;5.93;5.32;;;;;;;14.52;92.04;101826.09;2023983;29;25644;-71
2022/07/19 03:07:38;;;;;;;5.90;5.05;;;;;;;14.53;92.26;101825.16;2024477;29;20185;-72
2022/07/19 03:08:40;;;;;;;8.55;5.68;;;;;;;14.49;91.93;101821.63;2016967;29;25352;-71
2022/07/19 03:09:45;;;;;;;5.53;4.88;;;;;;;14.50;91.96;101820.72;2016462;29;22492;-71
2022/07/19 03:10:47;;;;;;;9.88;5.70;;;;;;;14.47;91.89;101823.50;2016668;29;23631;-72
2022/07/19 03:12:52;;;;;;;7.45;5.80;;;;;;;14.43;92.05;101820.94;2015762;29;44009;-71
2022/07/19 03:13:53;;;;;;;7.93;5.22;;;;;;;14.40;92.14;101827.25;2016077;29;24298;-71
2022/07/19 03:14:56;;;;;;;6.05;4.80;;;;;;;14.41;92.82;101825.44;2016666;29;20902;-71
2022/07/19 03:16:58;;;;;;;5.65;4.63;;;;;;;14.39;92.72;101830.91;2014585;29;46628;-71
2022/07/19 03:18:04;;;;;;;6.40;5.13;;;;;;;14.35;92.73;101823.78;2016818;29;20164;-72
2022/07/19 03:19:08;;;;;;;7.15;5.45;;;;;;;14.34;92.76;101822.03;2016100;29;28615;-72
2022/07/19 03:20:11;;;;;;;8.27;5.75;;;;;;;14.33;92.98;101825.63;2009111;29;20170;-71
2022/07/19 03:21:13;;;;;;;6.93;5.68;;;;;;;14.32;93.04;101829.28;2015978;29;29144;-72
2022/07/19 03:23:17;;;;;;;6.65;5.20;;;;;;;14.32;92.89;101827.47;2008419;29;43471;-72
2022/07/19 03:24:19;;;;;;;7.28;5.43;;;;;;;14.33;92.34;101825.63;2016119;29;33705;-72
2022/07/19 03:25:21;;;;;;;6.57;5.63;;;;;;;14.33;92.39;101831.03;2015344;29;35628;-72
2022/07/19 03:26:26;;;;;;;8.23;5.60;;;;;;;14.31;92.57;101828.38;2016333;29;20893;-72
2022/07/19 03:27:31;;;;;;;7.18;5.03;;;;;;;14.33;92.78;101825.63;2016962;29;23286;-72
2022/07/19 03:28:34;;;;;;;6.00;4.88;;;;;;;14.35;92.64;101829.19;2017277;29;20049;-72
2022/07/19 03:29:36;;;;;;;7.70;5.90;;;;;;;14.41;93.71;101826.34;2016021;29;29699;-72
2022/07/19 03:31:38;;;;;;;9.00;6.15;;;;;;;14.50;94.17;101822.53;2007419;29;43483;-72
2022/07/19 03:32:40;;;;;;;7.00;6.30;;;;;;;14.54;93.69;101826.06;2016859;29;20202;-72
2022/07/19 03:33:42;;;;;;;7.38;6.30;;;;;;;14.56;93.44;101821.50;2017026;29;20122;-72
2022/07/19 03:34:45;;;;;;;8.25;6.30;;;;;;;14.59;93.36;101826.81;2015975;29;20160;-72
2022/07/19 03:35:47;;;;;;;10.43;5.95;;;;;;;14.59;93.20;101822.34;2016370;29;20038;-72
2022/07/19 03:36:49;;;;;;;8.98;5.65;;;;;;;14.61;92.86;101819.63;2017362;29;20188;-72
2022/07/19 03:38:51;;;;;;;7.18;5.40;;;;;;;14.59;92.69;101816.94;2016061;29;33670;-72
2022/07/19 03:39:53;;;;;;;8.13;6.15;;;;;;;14.57;92.40;101818.78;2016098;29;20205;-72
2022/07/19 03:40:55;;;;;;;7.07;5.75;;;;;;;14.56;92.50;101827.75;2016686;29;28652;-72
2022/07/19 03:41:57;;;;;;;7.63;5.95;;;;;;;14.57;92.69;101825.94;2024072;29;20212;-72
2022/07/19 03:44:05;;;;;;;7.63;6.03;;;;;;;14.62;93.16;101826.75;2015662;29;45280;-72
2022/07/19 03:45:09;;;;;;;8.27;6.50;;;;;;;14.63;93.45;101828.53;2016257;29;20053;-72
2022/07/19 03:46:11;;;;;;;9.63;6.07;;;;;;;14.65;93.05;101827.56;2016458;29;30656;-71
2022/07/19 03:47:13;;;;;;;8.38;5.88;;;;;;;14.67;92.87;101819.44;2016667;29;23984;-72
2022/07/19 03:48:21;;;;;;;7.07;5.57;;;;;;;14.70;93.04;101822.06;2016513;29;35860;-72
2022/07/19 03:49:23;;;;;;;8.48;5.65;;;;;;;14.73;92.80;101819.25;2016731;29;28771;-72
2022/07/19 03:50:25;;;;;;;7.18;5.65;;;;;;;14.75;92.85;101820.13;2016006;29;20046;-72
2022/07/19 03:51:26;;;;;;;7.57;5.47;;;;;;;14.80;92.79;101820.00;2016701;29;21365;-72
2022/07/19 03:53:29;;;;;;;10.30;6.80;;;;;;;14.85;92.77;101818.06;2015390;29;45807;-72
2022/07/19 03:54:40;;;;;;;9.48;7.05;;;;;;;14.90;93.25;101810.75;2017203;29;20766;-72
2022/07/19 03:55:42;;;;;;;7.65;5.75;;;;;;;14.94;93.02;101812.44;2022284;29;24141;-72
2022/07/19 03:56:43;;;;;;;7.45;6.25;;;;;;;14.98;92.69;101821.31;2015361;29;21509;-72
2022/07/19 03:57:45;;;;;;;9.07;6.15;;;;;;;15.01;92.68;101821.25;2017078;29;21423;-72
2022/07/19 03:58:48;;;;;;;8.68;6.10;;;;;;;15.05;92.31;101817.53;2016194;29;27106;-72
2022/07/19 04:00:51;;;;;;;9.32;5.60;;;;;;;15.18;92.02;101815.38;2007751;29;42180;-72
2022/07/19 04:01:58;;;;;;;8.32;5.82;;;;;;;15.31;91.52;101818.59;2015867;29;30110;-72
2022/07/19 04:02:59;;;;;;;9.82;6.32;;;;;;;15.45;91.01;101824.47;2022477;29;25409;-71
2022/07/19 04:04:01;;;;;;;10.88;5.90;;;;;;;15.60;90.60;101824.03;2024383;29;20876;-73
2022/07/19 04:05:04;;;;;;;8.43;6.22;;;;;;;15.78;89.52;101821.75;2016084;29;27766;-72
2022/07/19 04:07:11;;;;;;;6.40;5.43;;;;;;;16.07;88.78;101818.13;2015776;29;44098;-72
2022/07/19 04:08:21;;;;;;;7.90;5.93;;;;;;;16.22;87.69;101819.44;2016600;29;20128;-71
2022/07/19 04:09:23;;;;;;;11.15;6.30;;;;;;;16.34;87.76;101821.75;2015253;29;30271;-72
2022/07/19 04:10:25;;;;;;;7.43;5.80;;;;;;;16.49;87.28;101824.88;2017161;29;20049;-72
2022/07/19 04:11:27;;;;;;;8.43;5.53;;;;;;;16.64;86.76;101815.41;2016105;29;20050;-72
2022/07/19 04:14:29;;;;;;;8.98;6.00;;;;;;;17.02;84.70;101814.06;2007863;29;44037;-72
2022/07/19 04:15:31;;;;;;;6.50;4.97;;;;;;;17.14;84.13;101813.63;2015979;29;23258;-72
2022/07/19 04:16:33;;;;;;;6.82;5.35;;;;;;;17.28;83.34;101806.81;2023330;29;30811;-71
2022/07/19 04:18:57;;;;;;;;;;;;;;;17.44;81.73;101809.84;2000139;29;32286;-72
2022/07/19 04:20:01;;;;;;;7.55;5.68;;;;;;;17.50;81.76;101810.50;2000249;29;19990;-72
2022/07/19 04:21:03;;;;;;;8.05;6.30;;;;;;;17.55;81.43;101804.91;2008249;29;20069;-72
2022/07/19 04:22:07;;;;;;;8.75;6.15;;;;;;;17.62;81.42;101814.56;2007983;29;20621;-72
2022/07/19 04:23:09;;;;;;;8.48;6.10;;;;;;;17.68;80.68;101813.44;2007596;29;20108;-72
2022/07/19 04:24:11;;;;;;;6.45;5.43;;;;;;;17.74;80.38;101814.06;2007246;29;33515;-72
2022/07/19 04:25:12;;;;;;;7.97;6.30;;;;;;;17.82;79.05;101811.09;2007693;29;24260;-73
2022/07/19 04:28:15;;;;;;;8.43;5.97;;;;;;;18.42;77.30;101816.81;1998936;29;43603;-71
2022/07/19 04:29:16;;;;;;;8.82;5.93;;;;;;;18.74;76.17;101821.81;2008235;29;20865;-71
2022/07/19 04:30:19;;;;;;;6.28;5.60;;;;;;;19.06;74.31;101818.59;2008134;29;20213;-71
2022/07/19 04:31:20;;;;;;;10.10;6.22;;;;;;;19.42;73.85;101820.59;2007812;29;20139;-72
2022/07/19 04:32:24;;;;;;;9.18;6.20;;;;;;;19.79;71.49;101812.59;2007486;29;20864;-72
2022/07/19 04:33:26;;;;;;;7.45;6.25;;;;;;;20.07;70.12;101822.16;2000372;29;24821;-72
2022/07/19 04:35:29;;;;;;;10.20;6.63;;;;;;;20.56;66.20;101816.97;1999489;29;44292;-72
2022/07/19 04:36:31;;;;;;;9.40;6.55;;;;;;;20.77;65.65;101817.75;1999839;29;23757;-72
2022/07/19 04:37:35;;;;;;;9.45;6.22;;;;;;;20.96;65.40;101821.28;2008026;29;22032;-72
2022/07/19 04:38:37;;;;;;;8.68;6.45;;;;;;;21.09;63.92;101815.19;2007247;29;26015;-71
2022/07/19 04:39:39;;;;;;;7.20;5.90;;;;;;;21.20;63.76;101817.31;2007045;29;27111;-71
2022/07/19 04:40:48;;;;;;;10.80;6.72;;;;;;;21.22;62.72;101813.53;2007715;29;22200;-71
2022/07/19 04:41:53;;;;;;;7.72;6.13;;;;;;;21.23;61.63;101811.69;2007664;29;31452;-72
2022/07/19 04:42:55;;;;;;;8.65;7.10;;;;;;;21.24;61.60;101817.06;2007606;29;22124;-72
2022/07/19 04:43:57;;;;;;;9.95;7.20;;;;;;;21.25;62.25;101813.38;2007442;29;34225;-71
2022/07/19 04:45:00;;;;;;;8.43;6.57;;;;;;;21.41;63.18;101816.16;2007013;29;22232;-71
2022/07/19 04:46:03;;;;;;;8.60;6.63;;;;;;;21.51;61.72;101811.09;2008032;29;20926;-72
2022/07/19 04:47:05;;;;;;;8.25;6.55;;;;;;;21.56;60.18;101806.28;2007319;29;29981;-72
2022/07/19 04:48:08;;;;;;;7.03;5.82;;;;;;;21.79;59.79;101801.41;2007422;29;21628;-72
2022/07/19 04:49:09;;;;;;;6.88;6.15;;;;;;;21.92;59.47;101805.19;2007539;29;27117;-72
2022/07/19 04:50:11;;;;;;;7.25;6.43;;;;;;;22.10;59.30;101809.56;2007203;29;26039;-71
2022/07/19 04:52:16;;;;;;;6.90;6.20;;;;;;;22.36;57.70;101803.59;2015896;29;43798;-72
2022/07/19 04:53:18;;;;;;;8.40;6.18;;;;;;;22.66;57.17;101804.50;2015863;29;20168;-72
2022/07/19 04:54:20;;;;;;;8.73;6.13;;;;;;;22.81;56.27;101802.72;2016568;29;23248;-72
2022/07/19 04:55:22;;;;;;;8.95;6.72;;;;;;;23.11;55.95;101795.47;2016545;29;20037;-71
2022/07/19 04:56:26;;;;;;;9.07;6.07;;;;;;;23.46;54.76;101803.31;2015971;29;29541;-72
2022/07/19 04:57:27;;;;;;;9.18;6.88;;;;;;;23.63;53.87;101805.84;2016467;29;20950;-71
2022/07/19 04:58:29;;;;;;;10.50;6.80;;;;;;;23.74;53.10;101802.41;2016780;29;20081;-71
2022/07/19 05:01:32;;;;;;;8.48;6.65;;;;;;;24.35;50.97;101798.41;2007487;29;20057;-72
2022/07/19 05:02:34;;;;;;;9.15;5.93;;;;;;;24.28;50.76;101805.28;2015763;29;31260;-72
2022/07/19 05:03:36;;;;;;;8.88;5.60;;;;;;;24.34;50.33;101802.09;2023102;29;26943;-72
2022/07/19 05:04:38;;;;;;;6.90;5.68;;;;;;;24.33;50.43;101804.94;2023085;29;32509;-72
2022/07/19 05:05:44;;;;;;;5.82;5.20;;;;;;;24.25;50.26;101802.72;2015294;29;20077;-71
2022/07/19 05:06:47;;;;;;;8.23;5.70;;;;;;;24.11;51.46;101806.38;2015634;29;30162;-71
2022/07/19 05:07:52;;;;;;;5.70;5.10;;;;;;;23.86;52.03;101803.50;2016401;29;22518;-72
2022/07/19 05:08:53;;;;;;;7.78;5.50;;;;;;;23.76;52.71;101805.91;2023185;29;20053;-72
2022/07/19 05:09:58;;;;;;;7.75;5.70;;;;;;;23.63;52.86;101812.22;2023211;29;21950;-72
2022/07/19 05:11:04;;;;;;;8.23;5.53;;;;;;;23.61;53.41;101800.47;2023800;29;20037;-71
2022/07/19 05:13:06;;;;;;;7.40;5.55;;;;;;;23.71;52.54;101806.22;2015041;29;43455;-71
2022/07/19 05:14:08;;;;;;;7.68;5.82;;;;;;;23.86;52.24;101807.13;2016087;29;20124;-71
2022/07/19 05:15:10;;;;;;;7.00;5.60;;;;;;;23.99;51.82;101802.63;2016341;29;31138;-73
2022/07/19 05:16:16;;;;;;;8.82;5.13;;;;;;;24.17;51.09;101805.09;2016364;29;20045;-71
2022/07/19 05:17:18;;;;;;;6.80;5.78;;;;;;;24.10;52.13;101807.38;2015645;29;27537;-72
2022/07/19 05:18:20;;;;;;;6.90;5.65;;;;;;;24.30;51.11;101797.81;2016396;29;20041;-73
2022/07/19 05:20:23;;;;;;;6.55;5.63;;;;;;;24.88;50.23;101801.19;2021991;29;45224;-72
2022/07/19 05:21:25;;;;;;;7.80;5.80;;;;;;;25.12;49.31;101798.59;2023878;29;20085;-73
2022/07/19 05:22:27;;;;;;;7.20;5.28;;;;;;;25.34;48.61;101795.22;2022874;29;21290;-72
2022/07/19 05:23:29;;;;;;;13.15;6.22;;;;;;;25.44;48.14;101798.16;2016101;29;20567;-72
2022/07/19 05:25:01;;;;;;;6.07;5.47;;;;;;;25.71;47.62;101803.50;2011680;29;20165;-71
2022/07/19 05:27:20;;;;;;;6.38;5.50;;;;;;;26.03;47.17;101797.53;2014955;29;39477;-71
2022/07/19 05:28:22;;;;;;;8.90;5.80;;;;;;;26.16;46.54;101794.72;2015384;29;29890;-71
2022/07/19 05:30:30;;;;;;;5.95;4.70;;;;;;;26.44;44.48;101799.00;2014104;29;45569;-71
2022/07/19 05:31:32;;;;;;;5.75;4.95;;;;;;;26.62;44.87;101791.25;2014741;29;21252;-71
2022/07/19 05:32:54;;;;;;;7.15;6.30;;;;;;;26.21;44.94;101792.53;1998654;29;20836;-71
2022/07/19 05:33:55;;;;;;;10.40;6.53;;;;;;;26.28;43.30;101799.28;2000161;29;20066;-72
2022/07/19 05:34:57;;;;;;;7.60;5.90;;;;;;;25.86;45.22;101795.13;1999369;29;32398;-72
2022/07/19 05:35:59;;;;;;;6.82;5.18;;;;;;;26.52;44.76;101794.78;2003587;29;33527;-72
2022/07/19 05:37:01;;;;;;;8.10;5.85;;;;;;;27.24;43.78;101797.41;2006982;29;25109;-71
2022/07/19 05:38:06;;;;;;;7.40;5.93;;;;;;;27.83;42.11;101799.06;2008383;29;20979;-72
2022/07/19 05:41:10;;;;;;;7.95;5.00;;;;;;;29.15;39.23;101787.00;1990420;29;38844;-71
2022/07/19 05:42:12;;;;;;;7.78;5.65;;;;;;;29.62;38.37;101786.50;1999610;29;20633;-71
2022/07/19 05:43:17;;;;;;;6.15;4.88;;;;;;;29.70;36.47;101781.13;2007412;29;20050;-71